sensor_id;sensor_type;location;lat;lon;timestamp;temperature;humidity
6373;DHT22;3219;51.362;7.074;2022-07-12T00:01:40;15.10;99.90
6373;DHT22;3219;51.362;7.074;2022-07-12T00:04:08;15.10;99.90
6373;DHT22;3219;51.362;7.074;2022-07-12T00:06:34;15.10;99.90
6373;DHT22;3219;51.362;7.074;2022-07-12T00:09:01;15.10;99.90
6373;DHT22;3219;51.362;7.074;2022-07-12T00:11:28;15.10;99.90
6373;DHT22;3219;51.362;7.074;2022-07-12T00:13:55;15.00;99.90
6373;DHT22;3219;51.362;7.074;2022-07-12T00:16:22;15.00;99.90
6373;DHT22;3219;51.362;7.074;2022-07-12T00:18:49;15.00;99.90
6373;DHT22;3219;51.362;7.074;2022-07-12T00:21:17;14.90;99.90
6373;DHT22;3219;51.362;7.074;2022-07-12T00:23:44;14.90;99.90
6373;DHT22;3219;51.362;7.074;2022-07-12T00:26:10;14.90;99.90
6373;DHT22;3219;51.362;7.074;2022-07-12T00:28:37;14.80;99.90
6373;DHT22;3219;51.362;7.074;2022-07-12T00:31:04;14.80;99.90
6373;DHT22;3219;51.362;7.074;2022-07-12T00:33:31;14.70;99.90
6373;DHT22;3219;51.362;7.074;2022-07-12T00:35:58;14.70;99.90
6373;DHT22;3219;51.362;7.074;2022-07-12T00:38:26;14.70;99.90
6373;DHT22;3219;51.362;7.074;2022-07-12T00:40:53;14.70;99.90
6373;DHT22;3219;51.362;7.074;2022-07-12T00:43:20;14.70;99.90
6373;DHT22;3219;51.362;7.074;2022-07-12T00:45:46;14.70;99.90
6373;DHT22;3219;51.362;7.074;2022-07-12T00:48:13;14.80;99.90
6373;DHT22;3219;51.362;7.074;2022-07-12T00:50:44;14.70;99.90
6373;DHT22;3219;51.362;7.074;2022-07-12T00:53:13;14.70;99.90
6373;DHT22;3219;51.362;7.074;2022-07-12T00:55:41;14.60;99.90
6373;DHT22;3219;51.362;7.074;2022-07-12T00:58:08;14.60;99.90
6373;DHT22;3219;51.362;7.074;2022-07-12T01:00:35;14.50;99.90
6373;DHT22;3219;51.362;7.074;2022-07-12T01:03:02;14.50;99.90
6373;DHT22;3219;51.362;7.074;2022-07-12T01:05:30;14.60;99.90
6373;DHT22;3219;51.362;7.074;2022-07-12T01:07:57;14.60;99.90
6373;DHT22;3219;51.362;7.074;2022-07-12T01:10:24;14.50;99.90
6373;DHT22;3219;51.362;7.074;2022-07-12T01:12:52;14.60;99.90
6373;DHT22;3219;51.362;7.074;2022-07-12T01:15:20;14.60;99.90
6373;DHT22;3219;51.362;7.074;2022-07-12T01:17:47;14.60;99.90
6373;DHT22;3219;51.362;7.074;2022-07-12T01:20:14;14.60;99.90
6373;DHT22;3219;51.362;7.074;2022-07-12T01:22:50;14.50;99.90
6373;DHT22;3219;51.362;7.074;2022-07-12T01:25:18;14.50;99.90
6373;DHT22;3219;51.362;7.074;2022-07-12T01:27:45;14.50;99.90
6373;DHT22;3219;51.362;7.074;2022-07-12T01:30:12;14.50;99.90
6373;DHT22;3219;51.362;7.074;2022-07-12T01:32:39;14.50;99.90
6373;DHT22;3219;51.362;7.074;2022-07-12T01:35:07;14.50;99.90
6373;DHT22;3219;51.362;7.074;2022-07-12T01:37:36;14.50;99.90
6373;DHT22;3219;51.362;7.074;2022-07-12T01:40:06;14.50;99.90
6373;DHT22;3219;51.362;7.074;2022-07-12T01:42:34;14.50;99.90
6373;DHT22;3219;51.362;7.074;2022-07-12T01:45:00;14.40;99.90
6373;DHT22;3219;51.362;7.074;2022-07-12T01:47:29;14.40;99.90
6373;DHT22;3219;51.362;7.074;2022-07-12T01:49:56;14.20;99.90
6373;DHT22;3219;51.362;7.074;2022-07-12T01:52:23;14.20;99.90
6373;DHT22;3219;51.362;7.074;2022-07-12T01:54:50;14.20;99.90
6373;DHT22;3219;51.362;7.074;2022-07-12T01:57:19;14.20;99.90
6373;DHT22;3219;51.362;7.074;2022-07-12T01:59:46;14.20;99.90
6373;DHT22;3219;51.362;7.074;2022-07-12T02:02:13;14.30;99.90
6373;DHT22;3219;51.362;7.074;2022-07-12T02:04:40;14.20;99.90
6373;DHT22;3219;51.362;7.074;2022-07-12T02:07:06;14.20;99.90
6373;DHT22;3219;51.362;7.074;2022-07-12T02:09:33;14.30;99.90
6373;DHT22;3219;51.362;7.074;2022-07-12T02:12:01;14.30;99.90
6373;DHT22;3219;51.362;7.074;2022-07-12T02:14:29;14.30;99.90
6373;DHT22;3219;51.362;7.074;2022-07-12T02:16:56;14.30;99.90
6373;DHT22;3219;51.362;7.074;2022-07-12T02:19:22;14.40;99.90
6373;DHT22;3219;51.362;7.074;2022-07-12T02:21:49;14.30;99.90
6373;DHT22;3219;51.362;7.074;2022-07-12T02:24:16;14.40;99.90
6373;DHT22;3219;51.362;7.074;2022-07-12T02:26:43;14.30;99.90
6373;DHT22;3219;51.362;7.074;2022-07-12T02:29:10;14.40;99.90
6373;DHT22;3219;51.362;7.074;2022-07-12T02:31:38;14.40;99.90
6373;DHT22;3219;51.362;7.074;2022-07-12T02:34:05;14.40;99.90
6373;DHT22;3219;51.362;7.074;2022-07-12T02:36:32;14.40;99.90
6373;DHT22;3219;51.362;7.074;2022-07-12T02:38:59;14.50;99.90
6373;DHT22;3219;51.362;7.074;2022-07-12T02:41:29;14.50;99.90
6373;DHT22;3219;51.362;7.074;2022-07-12T02:43:56;14.40;99.90
6373;DHT22;3219;51.362;7.074;2022-07-12T02:46:23;14.40;99.90
6373;DHT22;3219;51.362;7.074;2022-07-12T02:48:51;14.40;99.90
6373;DHT22;3219;51.362;7.074;2022-07-12T02:51:18;14.40;99.90
6373;DHT22;3219;51.362;7.074;2022-07-12T02:53:45;14.40;99.90
6373;DHT22;3219;51.362;7.074;2022-07-12T02:56:12;14.50;99.90
6373;DHT22;3219;51.362;7.074;2022-07-12T02:58:38;14.50;99.90
6373;DHT22;3219;51.362;7.074;2022-07-12T03:01:05;14.50;99.90
6373;DHT22;3219;51.362;7.074;2022-07-12T03:03:32;14.40;99.90
6373;DHT22;3219;51.362;7.074;2022-07-12T03:06:00;14.40;99.90
6373;DHT22;3219;51.362;7.074;2022-07-12T03:08:27;14.40;99.90
6373;DHT22;3219;51.362;7.074;2022-07-12T03:10:54;14.40;99.90
6373;DHT22;3219;51.362;7.074;2022-07-12T03:13:21;14.40;99.90
6373;DHT22;3219;51.362;7.074;2022-07-12T03:15:47;14.40;99.90
6373;DHT22;3219;51.362;7.074;2022-07-12T03:18:15;14.50;99.90
6373;DHT22;3219;51.362;7.074;2022-07-12T03:20:42;14.50;99.90
6373;DHT22;3219;51.362;7.074;2022-07-12T03:23:10;14.50;99.90
6373;DHT22;3219;51.362;7.074;2022-07-12T03:25:37;14.50;99.90
6373;DHT22;3219;51.362;7.074;2022-07-12T03:28:04;14.60;99.90
6373;DHT22;3219;51.362;7.074;2022-07-12T03:30:30;14.60;99.90
6373;DHT22;3219;51.362;7.074;2022-07-12T03:32:57;14.60;99.90
6373;DHT22;3219;51.362;7.074;2022-07-12T03:35:24;14.60;99.90
6373;DHT22;3219;51.362;7.074;2022-07-12T03:37:51;14.60;99.90
6373;DHT22;3219;51.362;7.074;2022-07-12T03:40:20;14.60;99.90
6373;DHT22;3219;51.362;7.074;2022-07-12T03:42:47;14.60;99.90
6373;DHT22;3219;51.362;7.074;2022-07-12T03:45:14;14.70;99.90
6373;DHT22;3219;51.362;7.074;2022-07-12T03:47:42;14.70;99.90
6373;DHT22;3219;51.362;7.074;2022-07-12T03:50:10;14.80;99.90
6373;DHT22;3219;51.362;7.074;2022-07-12T03:52:38;14.80;99.90
6373;DHT22;3219;51.362;7.074;2022-07-12T03:55:06;14.90;99.90
6373;DHT22;3219;51.362;7.074;2022-07-12T03:57:34;14.90;99.90
6373;DHT22;3219;51.362;7.074;2022-07-12T04:00:05;15.00;99.90
6373;DHT22;3219;51.362;7.074;2022-07-12T04:02:34;15.10;99.90
6373;DHT22;3219;51.362;7.074;2022-07-12T04:05:00;15.20;99.90
6373;DHT22;3219;51.362;7.074;2022-07-12T04:07:27;15.30;99.90
6373;DHT22;3219;51.362;7.074;2022-07-12T04:09:54;15.40;99.90
6373;DHT22;3219;51.362;7.074;2022-07-12T04:12:20;15.50;99.90
6373;DHT22;3219;51.362;7.074;2022-07-12T04:14:49;15.70;99.90
6373;DHT22;3219;51.362;7.074;2022-07-12T04:17:16;16.10;99.90
6373;DHT22;3219;51.362;7.074;2022-07-12T04:19:42;17.20;99.90
6373;DHT22;3219;51.362;7.074;2022-07-12T04:22:10;18.70;99.90
6373;DHT22;3219;51.362;7.074;2022-07-12T04:24:36;19.70;99.90
6373;DHT22;3219;51.362;7.074;2022-07-12T04:27:04;20.30;99.90
6373;DHT22;3219;51.362;7.074;2022-07-12T04:29:30;20.80;99.90
6373;DHT22;3219;51.362;7.074;2022-07-12T04:31:58;21.40;99.90
6373;DHT22;3219;51.362;7.074;2022-07-12T04:34:25;22.00;99.90
6373;DHT22;3219;51.362;7.074;2022-07-12T04:36:52;22.10;99.90
6373;DHT22;3219;51.362;7.074;2022-07-12T04:39:19;22.40;99.90
6373;DHT22;3219;51.362;7.074;2022-07-12T04:41:46;22.80;99.90
6373;DHT22;3219;51.362;7.074;2022-07-12T04:44:13;23.60;99.90
6373;DHT22;3219;51.362;7.074;2022-07-12T04:46:40;24.40;99.90
6373;DHT22;3219;51.362;7.074;2022-07-12T04:49:08;25.30;99.90
6373;DHT22;3219;51.362;7.074;2022-07-12T04:51:35;26.20;99.90
6373;DHT22;3219;51.362;7.074;2022-07-12T04:54:01;26.90;99.90
6373;DHT22;3219;51.362;7.074;2022-07-12T04:56:28;27.50;99.90
6373;DHT22;3219;51.362;7.074;2022-07-12T04:58:55;28.20;99.90
6373;DHT22;3219;51.362;7.074;2022-07-12T05:01:22;28.70;99.90
6373;DHT22;3219;51.362;7.074;2022-07-12T05:03:49;29.20;99.90
6373;DHT22;3219;51.362;7.074;2022-07-12T05:06:17;29.20;99.90
6373;DHT22;3219;51.362;7.074;2022-07-12T05:08:43;29.40;99.90
6373;DHT22;3219;51.362;7.074;2022-07-12T05:11:10;30.00;99.90
6373;DHT22;3219;51.362;7.074;2022-07-12T05:13:37;30.50;99.90
6373;DHT22;3219;51.362;7.074;2022-07-12T05:16:06;31.10;99.90
6373;DHT22;3219;51.362;7.074;2022-07-12T05:18:33;31.30;99.90
6373;DHT22;3219;51.362;7.074;2022-07-12T05:21:00;31.60;99.90
6373;DHT22;3219;51.362;7.074;2022-07-12T05:23:28;31.60;99.90
6373;DHT22;3219;51.362;7.074;2022-07-12T05:25:55;32.00;99.90
6373;DHT22;3219;51.362;7.074;2022-07-12T05:28:22;32.80;99.30
6373;DHT22;3219;51.362;7.074;2022-07-12T05:30:48;33.30;98.60
6373;DHT22;3219;51.362;7.074;2022-07-12T05:33:15;33.50;98.00
6373;DHT22;3219;51.362;7.074;2022-07-12T05:35:42;33.60;97.50
6373;DHT22;3219;51.362;7.074;2022-07-12T05:38:09;33.60;97.40
6373;DHT22;3219;51.362;7.074;2022-07-12T05:40:37;34.00;97.20
6373;DHT22;3219;51.362;7.074;2022-07-12T05:43:03;34.40;96.70
6373;DHT22;3219;51.362;7.074;2022-07-12T05:45:30;34.70;96.00
6373;DHT22;3219;51.362;7.074;2022-07-12T05:47:57;34.90;95.90
6373;DHT22;3219;51.362;7.074;2022-07-12T05:50:24;35.20;95.30
6373;DHT22;3219;51.362;7.074;2022-07-12T05:52:51;35.50;95.30
6373;DHT22;3219;51.362;7.074;2022-07-12T05:55:36;35.60;94.80
6373;DHT22;3219;51.362;7.074;2022-07-12T05:58:03;36.20;94.50
6373;DHT22;3219;51.362;7.074;2022-07-12T06:00:30;36.30;93.80
6373;DHT22;3219;51.362;7.074;2022-07-12T06:02:58;36.40;93.40
6373;DHT22;3219;51.362;7.074;2022-07-12T06:05:25;36.30;93.00
6373;DHT22;3219;51.362;7.074;2022-07-12T06:07:51;36.20;92.90
6373;DHT22;3219;51.362;7.074;2022-07-12T06:10:18;36.60;93.00
6373;DHT22;3219;51.362;7.074;2022-07-12T06:12:46;36.30;92.50
6373;DHT22;3219;51.362;7.074;2022-07-12T06:15:13;36.90;92.40
6373;DHT22;3219;51.362;7.074;2022-07-12T06:17:40;36.80;92.10
6373;DHT22;3219;51.362;7.074;2022-07-12T06:20:07;36.60;92.30
6373;DHT22;3219;51.362;7.074;2022-07-12T06:22:34;37.00;91.80
6373;DHT22;3219;51.362;7.074;2022-07-12T06:25:01;36.80;92.20
6373;DHT22;3219;51.362;7.074;2022-07-12T06:27:27;37.00;91.90
6373;DHT22;3219;51.362;7.074;2022-07-12T06:29:55;37.70;91.70
6373;DHT22;3219;51.362;7.074;2022-07-12T06:32:22;38.10;91.20
6373;DHT22;3219;51.362;7.074;2022-07-12T06:34:49;37.90;91.30
6373;DHT22;3219;51.362;7.074;2022-07-12T06:37:15;38.10;91.60
6373;DHT22;3219;51.362;7.074;2022-07-12T06:39:42;38.20;91.00
6373;DHT22;3219;51.362;7.074;2022-07-12T06:42:09;38.20;91.10
6373;DHT22;3219;51.362;7.074;2022-07-12T06:44:36;38.30;91.10
6373;DHT22;3219;51.362;7.074;2022-07-12T06:47:04;38.70;90.40
6373;DHT22;3219;51.362;7.074;2022-07-12T06:49:31;39.00;90.50
6373;DHT22;3219;51.362;7.074;2022-07-12T06:51:58;39.20;90.10
6373;DHT22;3219;51.362;7.074;2022-07-12T06:54:25;40.00;89.10
6373;DHT22;3219;51.362;7.074;2022-07-12T06:56:51;40.20;89.10
6373;DHT22;3219;51.362;7.074;2022-07-12T06:59:18;40.50;89.60
6373;DHT22;3219;51.362;7.074;2022-07-12T07:01:45;40.80;88.50
6373;DHT22;3219;51.362;7.074;2022-07-12T07:04:13;40.50;88.80
6373;DHT22;3219;51.362;7.074;2022-07-12T07:06:40;40.70;89.00
6373;DHT22;3219;51.362;7.074;2022-07-12T07:09:06;41.10;88.70
6373;DHT22;3219;51.362;7.074;2022-07-12T07:11:34;41.10;88.60
6373;DHT22;3219;51.362;7.074;2022-07-12T07:14:02;41.30;88.30
6373;DHT22;3219;51.362;7.074;2022-07-12T07:16:29;41.30;87.50
6373;DHT22;3219;51.362;7.074;2022-07-12T07:18:56;41.10;87.80
6373;DHT22;3219;51.362;7.074;2022-07-12T07:21:24;40.80;88.60
6373;DHT22;3219;51.362;7.074;2022-07-12T07:23:51;41.20;86.70
6373;DHT22;3219;51.362;7.074;2022-07-12T07:26:18;40.50;87.50
6373;DHT22;3219;51.362;7.074;2022-07-12T07:28:45;39.40;88.90
6373;DHT22;3219;51.362;7.074;2022-07-12T07:31:29;39.00;89.80
6373;DHT22;3219;51.362;7.074;2022-07-12T07:33:56;38.90;89.70
6373;DHT22;3219;51.362;7.074;2022-07-12T07:36:24;37.90;90.20
6373;DHT22;3219;51.362;7.074;2022-07-12T07:38:51;36.50;91.20
6373;DHT22;3219;51.362;7.074;2022-07-12T07:41:18;35.50;91.40
6373;DHT22;3219;51.362;7.074;2022-07-12T07:43:44;34.80;91.60
6373;DHT22;3219;51.362;7.074;2022-07-12T07:46:11;34.60;92.20
6373;DHT22;3219;51.362;7.074;2022-07-12T07:48:38;34.70;92.00
6373;DHT22;3219;51.362;7.074;2022-07-12T07:51:05;35.60;92.00
6373;DHT22;3219;51.362;7.074;2022-07-12T07:53:33;36.50;91.30
6373;DHT22;3219;51.362;7.074;2022-07-12T07:56:00;37.70;90.80
6373;DHT22;3219;51.362;7.074;2022-07-12T07:58:26;37.60;90.10
6373;DHT22;3219;51.362;7.074;2022-07-12T08:00:53;36.90;90.90
6373;DHT22;3219;51.362;7.074;2022-07-12T08:03:20;36.10;90.70
6373;DHT22;3219;51.362;7.074;2022-07-12T08:05:48;34.60;91.70
6373;DHT22;3219;51.362;7.074;2022-07-12T08:08:16;33.00;92.90
6373;DHT22;3219;51.362;7.074;2022-07-12T08:10:45;31.80;94.50
6373;DHT22;3219;51.362;7.074;2022-07-12T08:13:12;31.10;95.20
6373;DHT22;3219;51.362;7.074;2022-07-12T08:15:39;30.50;95.60
6373;DHT22;3219;51.362;7.074;2022-07-12T08:18:05;30.00;95.70
6373;DHT22;3219;51.362;7.074;2022-07-12T08:20:32;29.40;96.20
6373;DHT22;3219;51.362;7.074;2022-07-12T08:22:59;29.10;96.20
6373;DHT22;3219;51.362;7.074;2022-07-12T08:25:26;28.80;97.70
6373;DHT22;3219;51.362;7.074;2022-07-12T08:27:54;28.60;97.10
6373;DHT22;3219;51.362;7.074;2022-07-12T08:30:21;28.40;98.00
6373;DHT22;3219;51.362;7.074;2022-07-12T08:32:47;28.20;98.10
6373;DHT22;3219;51.362;7.074;2022-07-12T08:35:14;27.90;98.60
6373;DHT22;3219;51.362;7.074;2022-07-12T08:37:41;27.80;98.40
6373;DHT22;3219;51.362;7.074;2022-07-12T08:40:08;27.60;98.20
6373;DHT22;3219;51.362;7.074;2022-07-12T08:42:37;27.60;98.60
6373;DHT22;3219;51.362;7.074;2022-07-12T08:45:09;27.60;99.20
6373;DHT22;3219;51.362;7.074;2022-07-12T08:47:36;27.60;98.90
6373;DHT22;3219;51.362;7.074;2022-07-12T08:50:11;27.40;99.10
6373;DHT22;3219;51.362;7.074;2022-07-12T08:52:39;27.40;99.60
6373;DHT22;3219;51.362;7.074;2022-07-12T08:55:17;27.50;99.20
6373;DHT22;3219;51.362;7.074;2022-07-12T08:57:44;27.50;99.10
6373;DHT22;3219;51.362;7.074;2022-07-12T09:00:13;27.60;99.20
6373;DHT22;3219;51.362;7.074;2022-07-12T09:02:44;27.60;99.20
6373;DHT22;3219;51.362;7.074;2022-07-12T09:05:12;27.60;99.40
6373;DHT22;3219;51.362;7.074;2022-07-12T09:07:39;27.50;99.40
6373;DHT22;3219;51.362;7.074;2022-07-12T09:10:08;27.60;99.30
6373;DHT22;3219;51.362;7.074;2022-07-12T09:12:35;27.60;99.40
6373;DHT22;3219;51.362;7.074;2022-07-12T09:15:15;27.70;99.90
6373;DHT22;3219;51.362;7.074;2022-07-12T09:17:53;27.50;98.90
6373;DHT22;3219;51.362;7.074;2022-07-12T09:20:22;27.40;98.40
6373;DHT22;3219;51.362;7.074;2022-07-12T09:22:56;27.50;98.70
6373;DHT22;3219;51.362;7.074;2022-07-12T09:25:23;27.50;98.80
6373;DHT22;3219;51.362;7.074;2022-07-12T09:27:51;27.30;98.30
6373;DHT22;3219;51.362;7.074;2022-07-12T09:30:21;27.10;99.00
6373;DHT22;3219;51.362;7.074;2022-07-12T09:32:58;27.10;99.50
6373;DHT22;3219;51.362;7.074;2022-07-12T09:35:43;27.00;99.70
6373;DHT22;3219;51.362;7.074;2022-07-12T09:38:28;27.20;99.60
6373;DHT22;3219;51.362;7.074;2022-07-12T09:40:54;27.30;98.90
6373;DHT22;3219;51.362;7.074;2022-07-12T09:43:23;27.30;98.90
6373;DHT22;3219;51.362;7.074;2022-07-12T09:45:51;27.30;98.90
6373;DHT22;3219;51.362;7.074;2022-07-12T09:48:19;27.30;99.00
6373;DHT22;3219;51.362;7.074;2022-07-12T09:50:47;27.20;99.70
6373;DHT22;3219;51.362;7.074;2022-07-12T09:53:20;27.20;99.30
6373;DHT22;3219;51.362;7.074;2022-07-12T09:55:49;27.20;99.60
6373;DHT22;3219;51.362;7.074;2022-07-12T09:58:23;27.50;99.40
6373;DHT22;3219;51.362;7.074;2022-07-12T10:00:54;27.60;99.30
6373;DHT22;3219;51.362;7.074;2022-07-12T10:03:22;27.50;99.10
6373;DHT22;3219;51.362;7.074;2022-07-12T10:05:51;27.30;99.20
6373;DHT22;3219;51.362;7.074;2022-07-12T10:08:19;27.20;99.40
6373;DHT22;3219;51.362;7.074;2022-07-12T10:10:47;27.10;99.60
6373;DHT22;3219;51.362;7.074;2022-07-12T10:13:15;27.20;99.60
6373;DHT22;3219;51.362;7.074;2022-07-12T10:15:42;27.30;99.60
6373;DHT22;3219;51.362;7.074;2022-07-12T10:18:17;27.40;99.90
6373;DHT22;3219;51.362;7.074;2022-07-12T10:20:44;27.60;99.80
6373;DHT22;3219;51.362;7.074;2022-07-12T10:23:31;27.70;99.50
6373;DHT22;3219;51.362;7.074;2022-07-12T10:26:02;27.60;98.90
6373;DHT22;3219;51.362;7.074;2022-07-12T10:28:56;27.40;99.30
6373;DHT22;3219;51.362;7.074;2022-07-12T10:31:24;27.30;99.60
6373;DHT22;3219;51.362;7.074;2022-07-12T10:34:15;27.40;99.90
6373;DHT22;3219;51.362;7.074;2022-07-12T10:37:08;27.40;99.90
6373;DHT22;3219;51.362;7.074;2022-07-12T10:39:35;27.50;99.90
6373;DHT22;3219;51.362;7.074;2022-07-12T10:42:16;27.60;99.90
6373;DHT22;3219;51.362;7.074;2022-07-12T10:44:46;27.70;99.40
6373;DHT22;3219;51.362;7.074;2022-07-12T10:47:15;27.80;99.20
6373;DHT22;3219;51.362;7.074;2022-07-12T10:49:47;27.70;99.00
6373;DHT22;3219;51.362;7.074;2022-07-12T10:52:15;27.80;99.10
6373;DHT22;3219;51.362;7.074;2022-07-12T10:54:47;27.70;99.90
6373;DHT22;3219;51.362;7.074;2022-07-12T10:57:15;27.70;99.20
6373;DHT22;3219;51.362;7.074;2022-07-12T10:59:46;27.60;99.30
6373;DHT22;3219;51.362;7.074;2022-07-12T11:02:15;27.70;99.10
6373;DHT22;3219;51.362;7.074;2022-07-12T11:04:47;27.70;99.80
6373;DHT22;3219;51.362;7.074;2022-07-12T11:07:17;27.70;99.00
6373;DHT22;3219;51.362;7.074;2022-07-12T11:09:44;27.80;99.50
6373;DHT22;3219;51.362;7.074;2022-07-12T11:12:14;27.80;99.50
6373;DHT22;3219;51.362;7.074;2022-07-12T11:14:45;27.90;99.00
6373;DHT22;3219;51.362;7.074;2022-07-12T11:17:12;27.90;99.00
6373;DHT22;3219;51.362;7.074;2022-07-12T11:19:39;28.10;98.50
6373;DHT22;3219;51.362;7.074;2022-07-12T11:22:08;28.00;98.20
6373;DHT22;3219;51.362;7.074;2022-07-12T11:24:35;28.00;98.40
6373;DHT22;3219;51.362;7.074;2022-07-12T11:27:02;28.10;97.90
6373;DHT22;3219;51.362;7.074;2022-07-12T11:29:30;28.10;98.90
6373;DHT22;3219;51.362;7.074;2022-07-12T11:32:00;28.10;98.60
6373;DHT22;3219;51.362;7.074;2022-07-12T11:34:28;28.10;98.30
6373;DHT22;3219;51.362;7.074;2022-07-12T11:36:56;28.20;98.50
6373;DHT22;3219;51.362;7.074;2022-07-12T11:39:34;28.20;97.70
6373;DHT22;3219;51.362;7.074;2022-07-12T11:42:02;28.20;98.20
6373;DHT22;3219;51.362;7.074;2022-07-12T11:44:48;28.20;98.50
6373;DHT22;3219;51.362;7.074;2022-07-12T11:47:16;28.20;97.90
6373;DHT22;3219;51.362;7.074;2022-07-12T11:49:44;28.30;98.30
6373;DHT22;3219;51.362;7.074;2022-07-12T11:52:14;28.40;98.80
6373;DHT22;3219;51.362;7.074;2022-07-12T11:54:44;28.50;98.30
6373;DHT22;3219;51.362;7.074;2022-07-12T11:57:12;28.50;97.70
6373;DHT22;3219;51.362;7.074;2022-07-12T11:59:39;28.50;97.60
6373;DHT22;3219;51.362;7.074;2022-07-12T12:02:07;28.30;98.80
6373;DHT22;3219;51.362;7.074;2022-07-12T12:04:44;28.30;99.20
6373;DHT22;3219;51.362;7.074;2022-07-12T12:07:11;28.30;99.10
6373;DHT22;3219;51.362;7.074;2022-07-12T12:10:04;28.40;98.90
6373;DHT22;3219;51.362;7.074;2022-07-12T12:12:38;28.60;99.30
6373;DHT22;3219;51.362;7.074;2022-07-12T12:15:06;28.60;98.80
6373;DHT22;3219;51.362;7.074;2022-07-12T12:17:34;28.60;99.20
6373;DHT22;3219;51.362;7.074;2022-07-12T12:20:16;28.70;97.70
6373;DHT22;3219;51.362;7.074;2022-07-12T12:22:44;28.60;97.70
6373;DHT22;3219;51.362;7.074;2022-07-12T12:25:14;28.40;98.10
6373;DHT22;3219;51.362;7.074;2022-07-12T12:27:44;28.40;98.70
6373;DHT22;3219;51.362;7.074;2022-07-12T12:30:12;28.30;99.10
6373;DHT22;3219;51.362;7.074;2022-07-12T12:32:44;28.40;99.10
6373;DHT22;3219;51.362;7.074;2022-07-12T12:35:12;28.30;98.50
6373;DHT22;3219;51.362;7.074;2022-07-12T12:37:39;28.10;99.00
6373;DHT22;3219;51.362;7.074;2022-07-12T12:40:07;28.20;98.90
6373;DHT22;3219;51.362;7.074;2022-07-12T12:42:35;28.30;99.50
6373;DHT22;3219;51.362;7.074;2022-07-12T12:45:03;28.40;99.80
6373;DHT22;3219;51.362;7.074;2022-07-12T12:47:29;28.60;99.60
6373;DHT22;3219;51.362;7.074;2022-07-12T12:50:00;28.80;99.10
6373;DHT22;3219;51.362;7.074;2022-07-12T12:52:29;28.90;98.70
6373;DHT22;3219;51.362;7.074;2022-07-12T12:54:56;28.90;98.50
6373;DHT22;3219;51.362;7.074;2022-07-12T12:57:23;29.00;98.40
6373;DHT22;3219;51.362;7.074;2022-07-12T12:59:52;28.90;98.20
6373;DHT22;3219;51.362;7.074;2022-07-12T13:02:19;28.90;98.30
6373;DHT22;3219;51.362;7.074;2022-07-12T13:04:49;28.90;98.20
6373;DHT22;3219;51.362;7.074;2022-07-12T13:07:16;28.80;98.10
6373;DHT22;3219;51.362;7.074;2022-07-12T13:09:43;28.70;99.00
6373;DHT22;3219;51.362;7.074;2022-07-12T13:12:09;28.70;99.00
6373;DHT22;3219;51.362;7.074;2022-07-12T13:14:36;28.70;98.20
6373;DHT22;3219;51.362;7.074;2022-07-12T13:17:05;28.70;98.00
6373;DHT22;3219;51.362;7.074;2022-07-12T13:19:32;28.60;98.20
6373;DHT22;3219;51.362;7.074;2022-07-12T13:21:59;28.60;98.00
6373;DHT22;3219;51.362;7.074;2022-07-12T13:24:25;28.60;98.00
6373;DHT22;3219;51.362;7.074;2022-07-12T13:26:52;28.70;98.20
6373;DHT22;3219;51.362;7.074;2022-07-12T13:29:19;28.80;98.40
6373;DHT22;3219;51.362;7.074;2022-07-12T13:31:46;28.90;97.50
6373;DHT22;3219;51.362;7.074;2022-07-12T13:34:14;28.90;97.60
6373;DHT22;3219;51.362;7.074;2022-07-12T13:36:41;29.00;97.90
6373;DHT22;3219;51.362;7.074;2022-07-12T13:39:08;29.10;97.50
6373;DHT22;3219;51.362;7.074;2022-07-12T13:41:52;29.00;97.20
6373;DHT22;3219;51.362;7.074;2022-07-12T13:44:19;29.00;96.70
6373;DHT22;3219;51.362;7.074;2022-07-12T13:46:46;29.00;97.00
6373;DHT22;3219;51.362;7.074;2022-07-12T13:49:14;28.90;96.20
6373;DHT22;3219;51.362;7.074;2022-07-12T13:51:41;28.80;96.50
6373;DHT22;3219;51.362;7.074;2022-07-12T13:54:08;28.80;97.20
6373;DHT22;3219;51.362;7.074;2022-07-12T13:56:34;28.70;97.80
6373;DHT22;3219;51.362;7.074;2022-07-12T13:59:01;28.60;96.80
6373;DHT22;3219;51.362;7.074;2022-07-12T14:01:29;28.60;97.00
6373;DHT22;3219;51.362;7.074;2022-07-12T14:03:55;28.70;96.80
6373;DHT22;3219;51.362;7.074;2022-07-12T14:06:24;28.50;96.50
6373;DHT22;3219;51.362;7.074;2022-07-12T14:08:51;28.50;96.50
6373;DHT22;3219;51.362;7.074;2022-07-12T14:11:18;28.50;97.10
6373;DHT22;3219;51.362;7.074;2022-07-12T14:13:44;28.50;96.90
6373;DHT22;3219;51.362;7.074;2022-07-12T14:16:11;28.50;97.00
6373;DHT22;3219;51.362;7.074;2022-07-12T14:18:39;28.50;96.90
6373;DHT22;3219;51.362;7.074;2022-07-12T14:21:06;28.40;97.10
6373;DHT22;3219;51.362;7.074;2022-07-12T14:23:35;28.50;97.30
6373;DHT22;3219;51.362;7.074;2022-07-12T14:26:02;28.50;97.30
6373;DHT22;3219;51.362;7.074;2022-07-12T14:28:30;28.50;97.00
6373;DHT22;3219;51.362;7.074;2022-07-12T14:30:57;28.60;97.60
6373;DHT22;3219;51.362;7.074;2022-07-12T14:33:24;28.60;97.70
6373;DHT22;3219;51.362;7.074;2022-07-12T14:35:50;28.70;97.60
6373;DHT22;3219;51.362;7.074;2022-07-12T14:38:17;28.70;96.90
6373;DHT22;3219;51.362;7.074;2022-07-12T14:40:45;28.60;96.70
6373;DHT22;3219;51.362;7.074;2022-07-12T14:43:12;28.50;97.20
6373;DHT22;3219;51.362;7.074;2022-07-12T14:45:39;28.60;97.00
6373;DHT22;3219;51.362;7.074;2022-07-12T14:48:07;28.60;97.00
6373;DHT22;3219;51.362;7.074;2022-07-12T14:50:34;28.60;97.20
6373;DHT22;3219;51.362;7.074;2022-07-12T14:53:00;28.70;96.80
6373;DHT22;3219;51.362;7.074;2022-07-12T14:55:27;28.80;96.80
6373;DHT22;3219;51.362;7.074;2022-07-12T14:57:55;28.80;96.90
6373;DHT22;3219;51.362;7.074;2022-07-12T15:00:22;28.70;96.40
6373;DHT22;3219;51.362;7.074;2022-07-12T15:02:49;28.70;96.80
6373;DHT22;3219;51.362;7.074;2022-07-12T15:05:16;28.60;97.00
6373;DHT22;3219;51.362;7.074;2022-07-12T15:07:43;28.70;96.40
6373;DHT22;3219;51.362;7.074;2022-07-12T15:10:10;28.70;96.40
6373;DHT22;3219;51.362;7.074;2022-07-12T15:12:36;28.80;96.80
6373;DHT22;3219;51.362;7.074;2022-07-12T15:15:05;28.90;96.70
6373;DHT22;3219;51.362;7.074;2022-07-12T15:17:33;29.00;96.40
6373;DHT22;3219;51.362;7.074;2022-07-12T15:20:00;29.20;96.70
6373;DHT22;3219;51.362;7.074;2022-07-12T15:22:27;29.40;96.80
6373;DHT22;3219;51.362;7.074;2022-07-12T15:24:54;29.50;95.90
6373;DHT22;3219;51.362;7.074;2022-07-12T15:27:21;29.60;96.30
6373;DHT22;3219;51.362;7.074;2022-07-12T15:29:49;29.70;95.70
6373;DHT22;3219;51.362;7.074;2022-07-12T15:32:17;29.80;95.80
6373;DHT22;3219;51.362;7.074;2022-07-12T15:34:44;29.80;95.50
6373;DHT22;3219;51.362;7.074;2022-07-12T15:37:11;29.90;95.40
6373;DHT22;3219;51.362;7.074;2022-07-12T15:39:38;29.90;95.50
6373;DHT22;3219;51.362;7.074;2022-07-12T15:42:04;29.90;95.30
6373;DHT22;3219;51.362;7.074;2022-07-12T15:44:31;29.90;95.60
6373;DHT22;3219;51.362;7.074;2022-07-12T15:46:58;29.90;95.30
6373;DHT22;3219;51.362;7.074;2022-07-12T15:49:26;29.90;94.50
6373;DHT22;3219;51.362;7.074;2022-07-12T15:51:53;29.80;93.70
6373;DHT22;3219;51.362;7.074;2022-07-12T15:54:37;29.70;93.30
6373;DHT22;3219;51.362;7.074;2022-07-12T15:57:04;29.70;93.80
6373;DHT22;3219;51.362;7.074;2022-07-12T15:59:31;29.70;93.70
6373;DHT22;3219;51.362;7.074;2022-07-12T16:01:58;29.70;93.00
6373;DHT22;3219;51.362;7.074;2022-07-12T16:04:26;29.60;93.00
6373;DHT22;3219;51.362;7.074;2022-07-12T16:06:53;29.60;93.10
6373;DHT22;3219;51.362;7.074;2022-07-12T16:09:21;29.60;93.10